Time;durP1;ratioP1;P1;durP2;ratioP2;P2;SDS_P1;SDS_P2;PMS_P1;PMS_P2;Temp;Humidity;BMP_temperature;BMP_pressure;BME280_temperature;BME280_humidity;BME280_pressure;Samples;Min_cycle;Max_cycle;Signal;HPM_P1;HPM_P2
2022/05/10 00:01:53;;;;;;;10.65;6.95;;;14.30;99.90;;;;;;5070833;28;20391;-60
2022/05/10 00:04:19;;;;;;;10.10;6.40;;;14.30;99.90;;;;;;5062651;28;20029;-58
2022/05/10 00:06:48;;;;;;;9.20;6.25;;;14.30;99.90;;;;;;5065832;28;20059;-59
2022/05/10 00:09:16;;;;;;;9.85;6.90;;;14.30;99.90;;;;;;5067477;28;20434;-59
2022/05/10 00:11:42;;;;;;;13.18;6.40;;;14.20;99.90;;;;;;5063558;28;20112;-59
2022/05/10 00:14:07;;;;;;;12.70;6.18;;;14.20;99.90;;;;;;5070886;28;20107;-60
2022/05/10 00:16:39;;;;;;;11.50;6.72;;;14.20;99.90;;;;;;5064728;28;20451;-59
2022/05/10 00:19:05;;;;;;;10.70;6.82;;;14.10;99.90;;;;;;5066839;28;20029;-60
2022/05/10 00:21:32;;;;;;;11.32;6.30;;;14.10;99.90;;;;;;5066631;28;20436;-58
2022/05/10 00:23:57;;;;;;;10.82;6.63;;;14.00;99.90;;;;;;5067897;28;20028;-60
2022/05/10 00:26:23;;;;;;;12.23;7.50;;;14.00;99.90;;;;;;5068671;28;20095;-60
2022/05/10 00:28:48;;;;;;;9.85;5.80;;;13.90;99.90;;;;;;5067957;28;20051;-60
2022/05/10 00:31:15;;;;;;;10.63;7.05;;;13.90;99.90;;;;;;5070425;28;20048;-60
2022/05/10 00:33:41;;;;;;;9.48;6.30;;;13.80;99.90;;;;;;5066184;28;20021;-60
2022/05/10 00:36:11;;;;;;;8.45;6.15;;;13.90;99.90;;;;;;5068286;28;20123;-60
2022/05/10 00:38:39;;;;;;;11.95;6.32;;;13.90;99.90;;;;;;5069023;28;20028;-59
2022/05/10 00:41:34;;;;;;;8.40;6.18;;;13.90;99.90;;;;;;5068764;28;20032;-59
2022/05/10 00:44:14;;;;;;;8.55;6.05;;;13.90;99.90;;;;;;5062938;28;20021;-60
2022/05/10 00:47:00;;;;;;;9.82;6.65;;;13.80;99.90;;;;;;5070977;28;20065;-59
2022/05/10 00:49:35;;;;;;;9.43;6.47;;;13.70;99.90;;;;;;5059512;28;20067;-60
2022/05/10 00:52:11;;;;;;;9.02;7.05;;;13.70;99.90;;;;;;5066147;28;20021;-58
2022/05/10 00:54:37;;;;;;;9.68;7.25;;;13.70;99.90;;;;;;5060820;28;20430;-60
2022/05/10 00:57:16;;;;;;;10.20;6.75;;;13.70;99.90;;;;;;5068568;28;20060;-60
2022/05/10 01:00:04;;;;;;;9.02;6.28;;;13.60;99.90;;;;;;5058430;28;20078;-59
2022/05/10 01:02:52;;;;;;;10.30;7.22;;;13.70;99.90;;;;;;5060560;28;20067;-58
2022/05/10 01:05:36;;;;;;;9.70;6.93;;;13.70;99.90;;;;;;5063699;28;20040;-60
2022/05/10 01:08:16;;;;;;;10.88;7.38;;;13.70;99.90;;;;;;5061676;28;20520;-59
2022/05/10 01:10:42;;;;;;;8.65;6.47;;;13.70;99.90;;;;;;5065201;28;20028;-59
2022/05/10 01:13:23;;;;;;;10.43;6.70;;;13.70;99.90;;;;;;5065578;28;20032;-60
2022/05/10 01:16:18;;;;;;;11.98;7.03;;;13.70;99.90;;;;;;5066054;28;20481;-60
2022/05/10 01:18:44;;;;;;;11.90;7.28;;;13.60;99.90;;;;;;5064480;28;20516;-58
2022/05/10 01:21:40;;;;;;;10.82;7.45;;;13.60;99.90;;;;;;5062159;28;20040;-59
2022/05/10 01:24:18;;;;;;;16.45;7.00;;;13.60;99.90;;;;;;5059183;28;20028;-58
2022/05/10 01:26:56;;;;;;;10.68;7.03;;;13.50;99.90;;;;;;5069360;28;20298;-61
2022/05/10 01:29:50;;;;;;;13.65;7.00;;;13.50;99.90;;;;;;5069855;28;20327;-60
2022/05/10 01:35:09;;;;;;;12.77;8.05;;;13.30;99.90;;;;;;5068412;28;20425;-59
2022/05/10 01:37:38;;;;;;;7.97;6.35;;;13.30;99.90;;;;;;5059634;28;20194;-59
2022/05/10 01:40:08;;;;;;;13.32;7.13;;;13.20;99.90;;;;;;5068675;28;20386;-58
2022/05/10 01:42:59;;;;;;;10.27;7.10;;;13.20;99.90;;;;;;5067014;28;20109;-59
2022/05/10 01:46:07;;;;;;;10.48;6.45;;;13.20;99.90;;;;;;5066019;28;20024;-60
2022/05/10 01:48:36;;;;;;;11.18;7.13;;;13.20;99.90;;;;;;5036782;28;20087;-60
2022/05/10 01:51:12;;;;;;;12.40;6.85;;;13.30;99.90;;;;;;5037854;28;20044;-60
2022/05/10 01:53:39;;;;;;;11.23;7.35;;;13.20;99.90;;;;;;5055060;28;20036;-60
2022/05/10 01:56:22;;;;;;;7.72;6.18;;;13.10;99.90;;;;;;5063537;28;20066;-60
2022/05/10 01:58:48;;;;;;;12.20;7.13;;;13.10;99.90;;;;;;5067403;28;20043;-60
2022/05/10 02:01:17;;;;;;;17.85;7.65;;;13.10;99.90;;;;;;5069180;28;20013;-60
2022/05/10 02:03:46;;;;;;;12.70;7.38;;;13.00;99.90;;;;;;5068077;28;20021;-59
2022/05/10 02:06:30;;;;;;;13.30;7.80;;;12.90;99.90;;;;;;5061554;28;20036;-59
2022/05/10 02:09:01;;;;;;;8.90;6.50;;;12.90;99.90;;;;;;5065077;28;20027;-60
2022/05/10 02:11:28;;;;;;;11.95;7.65;;;13.00;99.90;;;;;;5066601;28;20425;-60
2022/05/10 02:14:04;;;;;;;10.38;6.38;;;13.00;99.90;;;;;;5066788;28;20025;-60
2022/05/10 02:16:43;;;;;;;11.48;6.95;;;12.90;99.90;;;;;;5064010;28;20390;-60
2022/05/10 02:19:19;;;;;;;11.07;6.97;;;13.00;99.90;;;;;;5069755;28;20079;-60
2022/05/10 02:21:53;;;;;;;10.52;7.35;;;13.00;99.90;;;;;;5064747;28;20199;-60
2022/05/10 02:24:23;;;;;;;10.73;7.45;;;13.10;99.90;;;;;;5074455;28;20021;-58
2022/05/10 02:26:52;;;;;;;9.05;6.75;;;13.10;99.90;;;;;;5065200;28;20399;-60
2022/05/10 02:29:27;;;;;;;9.30;6.32;;;13.10;99.90;;;;;;5068099;28;20035;-60
2022/05/10 02:34:45;;;;;;;8.98;6.43;;;13.10;99.90;;;;;;5059411;28;20032;-61
2022/05/10 02:37:14;;;;;;;11.38;6.80;;;13.20;99.90;;;;;;5069478;28;20031;-59
2022/05/10 02:39:40;;;;;;;9.52;6.75;;;13.10;99.90;;;;;;5069540;28;20087;-60
2022/05/10 02:42:09;;;;;;;12.38;6.90;;;13.10;99.90;;;;;;5067980;28;20108;-60
2022/05/10 02:44:36;;;;;;;12.02;7.60;;;13.10;99.90;;;;;;5067134;28;20024;-59
2022/05/10 02:47:01;;;;;;;14.00;7.70;;;13.10;99.90;;;;;;5067230;28;20037;-61
2022/05/10 02:49:27;;;;;;;10.35;7.38;;;13.00;99.90;;;;;;5066348;28;20086;-61
2022/05/10 02:51:53;;;;;;;10.00;6.68;;;13.00;99.90;;;;;;5064346;28;20102;-60
2022/05/10 02:54:18;;;;;;;10.15;7.20;;;12.90;99.90;;;;;;5064771;28;20033;-61
2022/05/10 02:56:44;;;;;;;10.05;7.25;;;12.90;99.90;;;;;;5064208;22;20049;-53
2022/05/10 02:59:21;;;;;;;12.15;7.30;;;13.00;99.90;;;;;;5028500;28;20033;-53
2022/05/10 03:02:08;;;;;;;10.68;6.97;;;13.00;99.90;;;;;;5023938;28;20025;-55
2022/05/10 03:04:37;;;;;;;14.07;6.90;;;13.00;99.90;;;;;;5028707;28;20032;-58
2022/05/10 03:07:05;;;;;;;10.57;7.47;;;13.00;99.90;;;;;;5025074;28;20117;-56
2022/05/10 03:09:31;;;;;;;11.25;7.75;;;13.00;99.90;;;;;;5023788;28;20037;-53
2022/05/10 03:11:56;;;;;;;13.80;7.38;;;13.10;99.90;;;;;;5024915;28;20121;-55
2022/05/10 03:14:23;;;;;;;10.45;7.57;;;13.10;99.90;;;;;;5028727;28;20100;-53
2022/05/10 03:16:48;;;;;;;12.90;7.72;;;13.00;99.90;;;;;;5026931;28;20025;-53
2022/05/10 03:19:16;;;;;;;12.18;7.45;;;13.00;99.90;;;;;;5025779;28;20025;-56
2022/05/10 03:21:42;;;;;;;11.82;7.65;;;13.00;99.90;;;;;;5026924;28;20104;-57
2022/05/10 03:24:08;;;;;;;9.27;7.10;;;12.90;99.90;;;;;;5023905;28;20112;-53
2022/05/10 03:26:34;;;;;;;11.52;7.13;;;12.90;99.90;;;;;;5022974;28;20495;-53
2022/05/10 03:28:59;;;;;;;14.25;7.30;;;12.80;99.90;;;;;;5027625;28;20037;-53
2022/05/10 03:31:27;;;;;;;10.82;6.97;;;12.70;99.90;;;;;;5031434;28;20051;-56
2022/05/10 03:36:38;;;;;;;;;;;12.60;99.90;;;;;;5025086;28;20582;-56
2022/05/10 03:39:05;;;;;;;12.73;7.68;;;12.60;99.90;;;;;;5023208;28;19909;-54
2022/05/10 03:41:30;;;;;;;16.73;8.50;;;12.60;99.90;;;;;;5022851;28;20084;-54
2022/05/10 03:43:56;;;;;;;11.05;7.97;;;12.70;99.90;;;;;;5027155;28;20561;-55
2022/05/10 03:46:21;;;;;;;14.38;8.10;;;12.80;99.90;;;;;;5022200;28;20040;-55
2022/05/10 03:48:49;;;;;;;13.60;8.45;;;12.80;99.90;;;;;;5022871;28;20106;-56
2022/05/10 03:51:14;;;;;;;13.60;8.57;;;12.90;99.90;;;;;;5024934;28;20026;-55
2022/05/10 03:53:40;;;;;;;13.43;8.82;;;12.90;99.90;;;;;;5025102;28;20025;-53
2022/05/10 03:56:06;;;;;;;11.73;8.18;;;13.00;99.90;;;;;;5026577;28;20033;-53
2022/05/10 03:58:31;;;;;;;13.80;8.80;;;13.00;99.90;;;;;;5022002;28;20407;-54
2022/05/10 04:00:57;;;;;;;13.70;7.85;;;13.00;99.90;;;;;;5028163;28;20064;-56
2022/05/10 04:03:22;;;;;;;10.60;7.70;;;13.00;99.90;;;;;;5025038;28;20040;-53
2022/05/10 04:05:48;;;;;;;13.45;7.55;;;13.00;99.90;;;;;;5022721;28;20037;-53
2022/05/10 04:08:14;;;;;;;11.43;7.30;;;13.00;99.90;;;;;;5025422;28;20030;-57
2022/05/10 04:10:40;;;;;;;10.00;7.28;;;13.00;99.90;;;;;;5027158;28;20025;-55
2022/05/10 04:13:05;;;;;;;13.98;8.85;;;12.90;99.90;;;;;;5027954;28;20112;-54
2022/05/10 04:15:31;;;;;;;10.73;6.82;;;12.90;99.90;;;;;;5021742;28;20512;-53
2022/05/10 04:17:56;;;;;;;11.85;7.93;;;12.90;99.90;;;;;;5027646;28;20026;-53
2022/05/10 04:20:22;;;;;;;13.02;7.65;;;12.90;99.90;;;;;;5025649;28;20088;-53
2022/05/10 04:22:47;;;;;;;12.00;8.27;;;12.90;99.90;;;;;;5028544;28;20048;-53
2022/05/10 04:25:16;;;;;;;13.00;7.95;;;12.80;99.90;;;;;;5024934;28;20407;-56
2022/05/10 04:27:42;;;;;;;11.38;7.45;;;12.90;99.90;;;;;;5026745;28;20029;-55
2022/05/10 04:30:08;;;;;;;10.85;7.93;;;12.90;99.90;;;;;;5025865;28;20703;-56
2022/05/10 04:32:36;;;;;;;12.18;8.32;;;12.90;99.90;;;;;;5023070;28;20032;-54
2022/05/10 04:35:02;;;;;;;12.60;8.25;;;13.00;99.90;;;;;;5023355;28;20028;-53
2022/05/10 04:37:27;;;;;;;12.65;7.68;;;13.00;99.90;;;;;;5029491;28;20038;-53
2022/05/10 04:42:37;;;;;;;17.40;8.95;;;13.10;99.90;;;;;;5030594;28;20057;-56
2022/05/10 04:45:03;;;;;;;12.52;7.93;;;13.10;99.90;;;;;;5023793;28;20049;-54
2022/05/10 04:47:28;;;;;;;14.70;7.97;;;13.00;99.90;;;;;;5022955;28;20029;-56
2022/05/10 04:49:54;;;;;;;16.95;7.70;;;13.10;99.90;;;;;;5028507;28;20034;-54
2022/05/10 04:52:19;;;;;;;12.93;8.40;;;13.10;99.90;;;;;;5030288;28;20041;-57
2022/05/10 04:54:45;;;;;;;15.45;8.25;;;13.10;99.90;;;;;;5030535;28;20095;-55
2022/05/10 04:57:10;;;;;;;15.18;9.65;;;13.20;99.90;;;;;;5032028;28;20026;-53
2022/05/10 04:59:36;;;;;;;16.35;8.38;;;13.20;99.90;;;;;;5033540;28;20029;-58
2022/05/10 05:02:02;;;;;;;14.25;8.25;;;13.30;99.90;;;;;;5025874;28;20176;-53
2022/05/10 05:04:27;;;;;;;13.85;8.38;;;13.30;99.90;;;;;;5023858;28;20604;-53
2022/05/10 05:06:53;;;;;;;13.48;8.02;;;13.30;99.90;;;;;;5024915;28;20499;-57
2022/05/10 05:09:19;;;;;;;13.40;8.60;;;13.40;99.90;;;;;;5032768;28;20475;-56
2022/05/10 05:11:44;;;;;;;13.48;8.15;;;13.40;99.90;;;;;;5027690;28;20021;-53
2022/05/10 05:14:10;;;;;;;15.88;9.77;;;13.50;99.90;;;;;;5025400;28;20045;-56
2022/05/10 05:16:36;;;;;;;14.35;9.35;;;13.50;99.90;;;;;;5023115;28;20021;-54
2022/05/10 05:19:02;;;;;;;17.95;9.35;;;13.60;99.90;;;;;;5026485;28;20041;-54
2022/05/10 05:21:27;;;;;;;16.73;10.13;;;13.70;99.90;;;;;;5025611;28;20026;-53
2022/05/10 05:23:53;;;;;;;12.77;8.95;;;13.70;99.90;;;;;;5022374;28;20034;-56
2022/05/10 05:26:18;;;;;;;15.55;9.80;;;13.70;99.90;;;;;;5024400;28;20032;-56
2022/05/10 05:28:44;;;;;;;16.42;10.10;;;13.70;99.90;;;;;;5029510;28;20555;-56
2022/05/10 05:31:12;;;;;;;13.20;9.60;;;13.80;99.90;;;;;;5025446;28;20124;-67
2022/05/10 05:33:38;;;;;;;22.23;11.60;;;13.90;99.90;;;;;;5026890;28;20025;-68
2022/05/10 05:36:04;;;;;;;13.82;9.32;;;14.00;99.90;;;;;;5024852;28;20026;-68
2022/05/10 05:38:30;;;;;;;17.77;10.20;;;14.10;99.90;;;;;;5029478;28;20026;-67
2022/05/10 05:40:55;;;;;;;16.13;9.15;;;14.20;99.90;;;;;;5028997;28;20104;-67
2022/05/10 05:43:22;;;;;;;15.43;9.55;;;14.30;99.90;;;;;;5026480;28;20026;-67
2022/05/10 05:45:50;;;;;;;13.23;9.20;;;14.40;99.90;;;;;;5022201;28;20635;-67
2022/05/10 05:48:16;;;;;;;21.75;9.65;;;14.60;99.90;;;;;;5029572;28;20061;-67
2022/05/10 05:50:42;;;;;;;16.42;9.73;;;14.70;99.90;;;;;;5028150;28;20025;-67
2022/05/10 05:53:08;;;;;;;18.13;10.07;;;14.80;99.90;;;;;;5028933;28;20401;-67
2022/05/10 05:55:33;;;;;;;14.55;8.32;;;14.90;99.90;;;;;;5027810;28;20745;-67
2022/05/10 05:57:59;;;;;;;19.67;9.23;;;15.10;99.90;;;;;;5030188;28;20044;-67
2022/05/10 06:00:26;;;;;;;14.20;8.60;;;15.10;99.90;;;;;;5027898;28;20104;-67
2022/05/10 06:02:52;;;;;;;13.90;8.25;;;15.30;99.90;;;;;;5029513;28;20044;-67
2022/05/10 06:05:19;;;;;;;14.70;8.20;;;15.40;99.90;;;;;;5028698;28;20025;-67
2022/05/10 06:07:45;;;;;;;12.73;8.20;;;15.50;99.90;;;;;;5026482;28;20444;-67
2022/05/10 06:10:11;;;;;;;13.63;8.70;;;15.60;99.90;;;;;;5031586;28;20159;-66
2022/05/10 06:12:37;;;;;;;11.90;9.07;;;15.70;99.90;;;;;;5030142;28;20025;-66
2022/05/10 06:15:11;;;;;;;11.38;8.25;;;15.80;99.90;;;;;;5029830;28;20028;-66
2022/05/10 06:17:39;;;;;;;12.85;7.97;;;15.90;99.90;;;;;;5027203;28;20079;-67
2022/05/10 06:20:09;;;;;;;14.10;8.60;;;16.10;99.90;;;;;;5029197;28;20025;-67
2022/05/10 06:22:35;;;;;;;17.77;9.20;;;16.10;99.90;;;;;;5030034;28;20025;-66
2022/05/10 06:25:01;;;;;;;12.02;8.48;;;16.20;99.90;;;;;;5028655;28;20132;-66
2022/05/10 06:27:27;;;;;;;13.93;8.15;;;16.30;99.90;;;;;;5034603;28;20519;-67
2022/05/10 06:29:53;;;;;;;16.75;8.93;;;16.30;99.90;;;;;;5026622;28;20025;-66
2022/05/10 06:32:22;;;;;;;13.55;8.15;;;16.40;99.90;;;;;;5028073;28;20029;-67
2022/05/10 06:34:49;;;;;;;28.00;8.77;;;16.40;99.90;;;;;;5022888;28;20100;-67
2022/05/10 06:40:04;;;;;;;12.68;8.32;;;16.60;99.90;;;;;;5030751;28;20120;-66
2022/05/10 06:42:30;;;;;;;12.68;7.53;;;16.70;99.90;;;;;;5028465;28;20032;-67
2022/05/10 06:44:55;;;;;;;18.52;7.60;;;16.80;99.90;;;;;;5030656;28;20029;-66
2022/05/10 06:47:21;;;;;;;9.50;7.75;;;16.80;99.90;;;;;;5030421;28;20025;-66
2022/05/10 06:49:47;;;;;;;19.10;8.45;;;16.90;99.90;;;;;;5030468;28;20030;-67
2022/05/10 06:52:16;;;;;;;13.15;9.75;;;16.90;99.90;;;;;;5030317;28;20025;-66
2022/05/10 06:54:42;;;;;;;11.32;7.32;;;16.90;99.90;;;;;;5032927;28;20498;-66
2022/05/10 06:57:08;;;;;;;11.48;7.10;;;17.00;99.90;;;;;;5032635;28;20037;-66
2022/05/10 06:59:33;;;;;;;10.48;7.93;;;17.10;99.90;;;;;;5029550;28;20080;-66
2022/05/10 07:01:59;;;;;;;13.00;6.80;;;17.10;99.90;;;;;;5030225;28;20306;-68
2022/05/10 07:04:24;;;;;;;10.48;6.55;;;17.20;99.90;;;;;;5030432;28;20446;-66
2022/05/10 07:06:50;;;;;;;12.40;6.70;;;17.20;99.90;;;;;;5030448;28;20064;-67
2022/05/10 07:09:15;;;;;;;16.30;6.50;;;17.30;99.90;;;;;;5030277;28;20029;-66
2022/05/10 07:11:41;;;;;;;14.55;6.90;;;17.30;99.90;;;;;;5031002;28;20029;-67
2022/05/10 07:14:06;;;;;;;10.18;6.60;;;17.30;99.90;;;;;;5030033;28;20549;-67
2022/05/10 07:16:32;;;;;;;11.88;6.85;;;17.30;99.90;;;;;;5029655;28;20030;-66
2022/05/10 07:18:57;;;;;;;8.77;7.03;;;17.30;99.90;;;;;;5030142;28;20053;-66
2022/05/10 07:21:23;;;;;;;11.82;6.20;;;17.40;99.90;;;;;;5029543;28;20025;-67
2022/05/10 07:23:48;;;;;;;13.68;6.70;;;17.40;99.90;;;;;;5029276;28;20053;-66
2022/05/10 07:26:14;;;;;;;10.10;6.60;;;17.50;99.90;;;;;;5029754;28;20108;-66
2022/05/10 07:28:39;;;;;;;10.05;7.28;;;17.50;99.90;;;;;;5029975;28;20092;-66
2022/05/10 07:31:05;;;;;;;12.55;8.00;;;17.60;99.90;;;;;;5028470;28;20034;-66
2022/05/10 07:33:31;;;;;;;12.77;7.78;;;17.70;99.90;;;;;;5029292;28;20152;-66
2022/05/10 07:38:42;;;;;;;;;;;17.90;99.90;;;;;;5030896;28;20024;-66
2022/05/10 07:41:08;;;;;;;11.55;7.47;;;18.00;99.90;;;;;;5029809;28;20384;-66
2022/05/10 07:43:38;;;;;;;12.82;6.43;;;18.20;99.90;;;;;;5027561;28;20071;-66
2022/05/10 07:46:05;;;;;;;8.77;6.28;;;18.30;99.90;;;;;;5029377;28;20087;-66
2022/05/10 07:48:30;;;;;;;14.32;7.88;;;18.40;99.90;;;;;;5029360;28;20376;-66
2022/05/10 07:50:56;;;;;;;12.98;7.75;;;18.50;99.90;;;;;;5030053;28;20070;-66
2022/05/10 07:53:22;;;;;;;14.07;8.02;;;18.60;99.90;;;;;;5031821;28;20033;-66
2022/05/10 07:55:47;;;;;;;13.80;7.10;;;18.70;99.90;;;;;;5029589;28;20519;-66
2022/05/10 07:58:13;;;;;;;12.30;7.30;;;18.80;99.90;;;;;;5029754;28;20079;-64
2022/05/10 08:00:40;;;;;;;10.95;8.20;;;19.00;99.90;;;;;;5026033;28;20018;-63
2022/05/10 08:03:15;;;;;;;12.35;7.00;;;19.20;99.90;;;;;;5027901;28;20026;-62
2022/05/10 08:05:42;;;;;;;11.90;8.25;;;19.30;99.90;;;;;;5032700;28;20025;-64
2022/05/10 08:08:08;;;;;;;8.63;6.40;;;19.50;99.90;;;;;;5029521;28;20044;-64
2022/05/10 08:10:35;;;;;;;9.73;6.75;;;19.60;99.90;;;;;;5029980;28;20022;-63
2022/05/10 08:13:01;;;;;;;14.00;7.50;;;19.80;99.90;;;;;;5033303;28;20022;-63
2022/05/10 08:15:27;;;;;;;10.15;6.85;;;20.00;99.90;;;;;;5033008;28;20923;-65
2022/05/10 08:17:52;;;;;;;19.35;8.95;;;20.10;99.90;;;;;;5048682;28;20021;-64
2022/05/10 08:20:19;;;;;;;13.48;8.60;;;20.20;99.90;;;;;;5036916;28;20855;-64
2022/05/10 08:22:44;;;;;;;15.38;8.52;;;20.30;99.90;;;;;;5031708;28;20025;-63
2022/05/10 08:25:12;;;;;;;12.73;7.10;;;20.40;99.90;;;;;;5033019;28;20521;-65
2022/05/10 08:27:38;;;;;;;13.25;8.02;;;20.50;99.90;;;;;;5033194;28;20045;-65
2022/05/10 08:30:04;;;;;;;13.98;6.78;;;20.60;99.90;;;;;;5036948;28;20479;-64
2022/05/10 08:32:30;;;;;;;10.23;6.18;;;20.60;99.90;;;;;;5032757;28;20029;-64
2022/05/10 08:34:55;;;;;;;10.05;5.70;;;20.80;99.90;;;;;;5032425;28;20549;-65
2022/05/10 08:37:21;;;;;;;10.02;6.53;;;20.90;99.90;;;;;;5031878;28;20041;-65
2022/05/10 08:39:46;;;;;;;11.73;6.43;;;21.00;99.90;;;;;;5032831;28;20032;-64
2022/05/10 08:42:22;;;;;;;9.05;6.10;;;21.10;99.90;;;;;;5032791;28;20036;-64
2022/05/10 08:44:58;;;;;;;10.65;5.85;;;21.30;99.90;;;;;;5032963;28;20422;-63
2022/05/10 08:47:25;;;;;;;8.55;5.25;;;21.50;99.90;;;;;;5031318;28;20033;-66
2022/05/10 08:49:57;;;;;;;13.80;6.72;;;21.60;99.90;;;;;;5033924;28;20068;-65
2022/05/10 08:52:30;;;;;;;10.00;4.90;;;21.80;99.90;;;;;;5031644;28;20079;-64
2022/05/10 08:54:56;;;;;;;8.52;5.30;;;21.90;99.90;;;;;;5032908;28;20018;-65
2022/05/10 08:57:40;;;;;;;6.50;4.78;;;22.10;99.90;;;;;;5050044;22;20063;-58
2022/05/10 09:00:25;;;;;;;6.90;4.90;;;22.20;99.90;;;;;;5074044;28;20521;-59
2022/05/10 09:02:56;;;;;;;14.98;5.25;;;22.30;99.90;;;;;;5073311;28;20020;-61
2022/05/10 09:05:28;;;;;;;8.27;4.07;;;22.50;99.90;;;;;;5073769;28;20060;-62
2022/05/10 09:08:04;;;;;;;10.75;4.20;;;22.70;99.90;;;;;;5071941;28;20494;-61
2022/05/10 09:10:44;;;;;;;6.82;4.35;;;23.00;99.90;;;;;;5071991;28;20033;-61
2022/05/10 09:13:16;;;;;;;5.07;3.78;;;23.20;99.90;;;;;;5071916;28;20115;-61
2022/05/10 09:16:06;;;;;;;8.00;3.60;;;23.30;99.90;;;;;;5071692;28;20074;-59
2022/05/10 09:18:37;;;;;;;10.00;3.40;;;23.50;99.90;;;;;;5064395;28;20041;-60
2022/05/10 09:21:33;;;;;;;5.45;3.42;;;23.70;99.90;;;;;;5071399;28;20036;-60
2022/05/10 09:24:10;;;;;;;6.90;3.35;;;23.90;99.90;;;;;;5064882;28;20017;-60
2022/05/10 09:26:45;;;;;;;5.25;3.13;;;24.00;99.90;;;;;;5071888;28;20035;-59
2022/05/10 09:29:22;;;;;;;5.63;3.35;;;24.10;99.90;;;;;;5071793;28;20029;-60
2022/05/10 09:34:49;;;;;;;5.22;3.03;;;24.30;99.90;;;;;;5072386;28;20083;-60
2022/05/10 09:37:17;;;;;;;5.88;2.80;;;24.50;99.90;;;;;;5071898;28;20070;-61
2022/05/10 09:39:59;;;;;;;4.35;3.28;;;24.60;99.90;;;;;;5071784;28;20028;-59
2022/05/10 09:42:27;;;;;;;6.07;2.95;;;24.80;99.90;;;;;;5071495;28;20107;-60
2022/05/10 09:45:12;;;;;;;4.60;3.13;;;24.80;99.90;;;;;;5071490;28;20059;-59
2022/05/10 09:47:38;;;;;;;5.43;2.80;;;24.90;99.90;;;;;;5076838;28;20035;-57
2022/05/10 09:50:15;;;;;;;3.30;2.75;;;25.10;99.90;;;;;;5071359;28;20025;-57
2022/05/10 09:52:41;;;;;;;5.15;3.42;;;25.40;99.90;;;;;;5071454;28;20024;-56
2022/05/10 09:55:12;;;;;;;4.28;3.20;;;25.60;99.90;;;;;;5070883;28;20029;-59
2022/05/10 09:57:39;;;;;;;4.78;2.65;;;25.80;99.90;;;;;;5071013;28;20029;-59
2022/05/10 10:00:08;;;;;;;2.88;2.60;;;26.10;99.90;;;;;;5069952;28;20055;-60
2022/05/10 10:02:37;;;;;;;3.33;2.70;;;26.30;99.90;;;;;;5072464;28;20077;-55
2022/05/10 10:05:23;;;;;;;6.47;2.60;;;26.60;99.90;;;;;;5070795;28;20395;-60
2022/05/10 10:07:54;;;;;;;2.50;2.25;;;26.50;99.10;;;;;;5053123;28;20016;-59
2022/05/10 10:10:31;;;;;;;3.10;2.15;;;26.30;98.50;;;;;;5070854;28;20035;-60
2022/05/10 10:12:58;;;;;;;7.20;2.42;;;26.20;97.50;;;;;;5070768;28;20547;-61
2022/05/10 10:15:41;;;;;;;3.03;2.38;;;26.20;96.70;;;;;;5071994;28;20521;-59
2022/05/10 10:18:31;;;;;;;4.13;2.33;;;26.30;94.50;;;;;;5070863;28;20577;-59
2022/05/10 10:20:57;;;;;;;5.15;2.47;;;26.50;94.70;;;;;;5070834;28;20025;-60
2022/05/10 10:23:30;;;;;;;5.15;2.25;;;26.60;94.90;;;;;;5070548;28;20027;-61
2022/05/10 10:26:03;;;;;;;5.38;1.80;;;26.60;94.20;;;;;;5070367;28;20090;-59
2022/05/10 10:28:38;;;;;;;2.75;2.08;;;26.70;92.80;;;;;;5064475;28;20059;-60
2022/05/10 10:31:22;;;;;;;2.45;1.98;;;26.70;91.90;;;;;;5069498;28;20028;-60
2022/05/10 10:33:57;;;;;;;2.35;2.13;;;26.70;91.60;;;;;;5070408;28;20032;-59
2022/05/10 10:36:31;;;;;;;5.35;2.05;;;26.70;91.50;;;;;;5070765;28;20098;-60
2022/05/10 10:39:00;;;;;;;2.22;2.03;;;27.00;91.00;;;;;;5070537;28;20035;-59
2022/05/10 10:41:30;;;;;;;2.78;2.03;;;27.50;90.40;;;;;;5069991;28;20039;-57
2022/05/10 10:43:58;;;;;;;2.13;1.88;;;27.40;87.80;;;;;;5071010;28;20052;-60
2022/05/10 10:46:47;;;;;;;3.20;1.98;;;27.20;87.30;;;;;;5071558;28;20405;-59
2022/05/10 10:49:16;;;;;;;3.60;2.20;;;27.00;88.00;;;;;;5070682;28;20456;-61
2022/05/10 10:51:41;;;;;;;3.88;2.13;;;27.20;89.10;;;;;;5070367;28;20167;-61
2022/05/10 10:54:16;;;;;;;8.80;2.40;;;26.90;87.80;;;;;;5070000;28;20525;-59
2022/05/10 10:57:01;;;;;;;3.35;2.22;;;26.90;88.60;;;;;;5071181;28;20039;-60
2022/05/10 11:00:03;;;;;;;2.53;2.10;;;26.80;85.20;;;;;;5073187;28;20058;-59
2022/05/10 11:02:51;;;;;;;4.80;1.90;;;26.80;86.10;;;;;;5066367;28;20387;-60
2022/05/10 11:05:23;;;;;;;3.92;2.00;;;26.60;86.40;;;;;;5071781;28;20385;-59
2022/05/10 11:08:22;;;;;;;5.22;2.65;;;26.20;87.40;;;;;;5071413;28;20074;-59
2022/05/10 11:11:26;;;;;;;6.80;2.50;;;26.20;88.00;;;;;;5026080;28;20040;-62
2022/05/10 11:14:25;;;;;;;4.85;2.10;;;26.20;88.40;;;;;;5070940;28;20085;-59
2022/05/10 11:17:22;;;;;;;4.88;2.40;;;26.00;89.70;;;;;;5070918;28;20454;-59
2022/05/10 11:20:06;;;;;;;2.60;2.40;;;26.00;88.40;;;;;;5066251;28;20029;-59
2022/05/10 11:22:58;;;;;;;3.92;2.45;;;25.90;89.40;;;;;;5071308;28;20040;-59
2022/05/10 11:25:48;;;;;;;3.90;2.60;;;25.60;88.50;;;;;;5071162;28;20035;-57
2022/05/10 11:28:41;;;;;;;3.33;2.67;;;25.70;88.80;;;;;;5072654;28;20166;-60
2022/05/10 11:31:24;;;;;;;9.07;3.03;;;25.70;89.10;;;;;;5070961;28;20360;-59
2022/05/10 11:34:20;;;;;;;4.63;2.50;;;25.80;90.10;;;;;;5071024;28;20475;-55
2022/05/10 11:36:49;;;;;;;3.78;2.53;;;25.50;90.40;;;;;;5070975;28;20607;-59
2022/05/10 11:39:47;;;;;;;5.93;2.58;;;25.80;90.90;;;;;;5071043;28;20033;-58
2022/05/10 11:42:35;;;;;;;4.50;2.65;;;25.90;90.70;;;;;;5072158;28;20035;-59
2022/05/10 11:45:21;;;;;;;5.40;2.95;;;26.10;91.40;;;;;;5071084;28;20103;-58
2022/05/10 11:48:17;;;;;;;6.47;2.83;;;26.10;91.60;;;;;;5068583;28;20036;-59
2022/05/10 11:54:07;;;;;;;4.45;2.85;;;26.20;91.50;;;;;;5074861;28;20059;-58
2022/05/10 11:56:38;;;;;;;7.00;2.70;;;26.10;93.60;;;;;;5079856;28;20021;-59
2022/05/10 11:59:14;;;;;;;7.07;2.90;;;26.10;92.60;;;;;;5074615;28;20035;-60
2022/05/10 12:01:44;;;;;;;5.80;3.35;;;26.00;91.80;;;;;;5074184;28;20104;-60
2022/05/10 12:04:35;;;;;;;3.97;2.67;;;26.00;91.00;;;;;;5074693;28;20371;-61
2022/05/10 12:07:19;;;;;;;2.95;2.42;;;26.10;92.00;;;;;;5065308;28;20043;-59
2022/05/10 12:09:53;;;;;;;4.82;2.45;;;26.70;92.60;;;;;;5077690;28;20103;-60
2022/05/10 12:12:27;;;;;;;;;;;26.90;91.40;;;;;;5076523;28;20024;-61
2022/05/10 12:24:02;;;;;;;2.90;2.15;;;26.80;91.30;;;;;;5068405;28;20070;-58
2022/05/10 12:26:48;;;;;;;3.75;2.22;;;27.30;90.70;;;;;;5075177;28;20405;-61
2022/05/10 12:29:35;;;;;;;6.40;2.70;;;27.60;90.60;;;;;;5074168;28;20028;-60
2022/05/10 12:32:18;;;;;;;2.80;2.22;;;27.70;88.20;;;;;;5073938;28;20319;-60
2022/05/10 12:35:07;;;;;;;4.07;2.70;;;27.70;87.90;;;;;;5074220;28;20055;-60
2022/05/10 12:37:41;;;;;;;4.32;2.75;;;27.90;87.30;;;;;;5073997;28;20086;-60
2022/05/10 12:40:09;;;;;;;3.05;2.55;;;28.30;85.20;;;;;;5074295;28;20024;-60
2022/05/10 12:43:00;;;;;;;5.05;2.67;;;28.30;87.30;;;;;;5073875;28;20056;-60
2022/05/10 12:45:59;;;;;;;4.00;2.08;;;28.80;84.70;;;;;;5073984;28;20029;-60
2022/05/10 12:48:53;;;;;;;5.45;2.58;;;28.80;85.10;;;;;;5073890;28;20394;-60
2022/05/10 12:51:40;;;;;;;2.78;2.00;;;28.90;83.00;;;;;;5074122;28;20032;-60
2022/05/10 12:54:19;;;;;;;5.78;2.70;;;28.70;82.20;;;;;;5074423;28;20033;-61
2022/05/10 12:57:06;;;;;;;4.43;2.47;;;28.40;81.80;;;;;;5073436;28;20024;-60
2022/05/10 12:59:50;;;;;;;3.60;1.83;;;28.50;82.30;;;;;;5073315;28;20050;-60
2022/05/10 13:02:16;;;;;;;3.83;3.10;;;28.70;82.40;;;;;;5073494;28;20040;-60
2022/05/10 13:04:49;;;;;;;3.17;2.22;;;28.50;82.20;;;;;;5074021;28;20055;-58
2022/05/10 13:07:43;;;;;;;2.58;2.13;;;28.00;83.60;;;;;;5073520;28;20104;-58
2022/05/10 13:10:16;;;;;;;4.82;2.38;;;28.00;83.10;;;;;;5073527;28;20024;-58
2022/05/10 13:12:49;;;;;;;4.05;2.28;;;27.40;82.10;;;;;;5069424;28;20033;-58
2022/05/10 13:15:21;;;;;;;3.53;2.08;;;27.30;82.60;;;;;;5072858;28;20449;-58
2022/05/10 13:17:56;;;;;;;7.22;2.75;;;27.90;85.00;;;;;;5078345;28;20067;-55
2022/05/10 13:20:26;;;;;;;2.80;2.05;;;28.20;84.00;;;;;;5047949;28;20494;-59
2022/05/10 13:23:01;;;;;;;6.70;2.80;;;28.10;83.50;;;;;;5065663;28;20371;-58
2022/05/10 13:25:36;;;;;;;6.22;2.50;;;27.80;82.60;;;;;;5071777;28;20035;-57
2022/05/10 13:28:07;;;;;;;2.75;2.45;;;27.40;84.50;;;;;;5070727;28;20648;-59
2022/05/10 13:30:33;;;;;;;4.03;2.30;;;27.40;84.10;;;;;;5064760;28;20720;-58
2022/05/10 13:32:58;;;;;;;3.42;2.20;;;27.30;84.20;;;;;;5069801;28;20037;-58
2022/05/10 13:35:31;;;;;;;3.83;2.47;;;27.10;85.40;;;;;;5070013;28;20100;-57
2022/05/10 13:38:02;;;;;;;2.95;2.47;;;27.20;85.20;;;;;;5070244;28;20020;-59